createdAt,value
2023-03-16T00:01:19.061Z,21.73
2023-03-16T00:06:20.571Z,21.13
2023-03-16T00:11:22.095Z,16.33
2023-03-16T00:16:23.648Z,11.70
2023-03-16T00:21:25.172Z,10.10
2023-03-16T00:26:26.658Z,11.18
2023-03-16T00:31:28.272Z,8.50
2023-03-16T00:36:30.369Z,7.15
2023-03-16T00:41:31.925Z,10.32
2023-03-16T00:46:33.533Z,9.88
2023-03-16T00:51:35.874Z,11.60
2023-03-16T00:56:37.459Z,9.35
2023-03-16T01:01:39.293Z,10.63
2023-03-16T01:06:41.803Z,22.05
2023-03-16T01:11:43.800Z,17.95
2023-03-16T01:16:45.972Z,14.07
2023-03-16T01:21:47.564Z,9.20
2023-03-16T01:26:50.259Z,8.40
2023-03-16T01:31:52.129Z,5.93
2023-03-16T01:36:54.437Z,10.77
2023-03-16T01:42:03.601Z,7.40
2023-03-16T01:47:05.934Z,8.65
2023-03-16T01:52:16.672Z,6.28
2023-03-16T01:57:23.699Z,6.22
2023-03-16T02:02:29.486Z,6.80
2023-03-16T02:07:35.979Z,6.15
2023-03-16T02:12:37.748Z,6.10
2023-03-16T02:17:42.700Z,6.60
2023-03-16T02:22:48.820Z,6.72
2023-03-16T02:28:15.892Z,6.60
2023-03-16T02:33:21.371Z,6.55
2023-03-16T02:38:22.993Z,9.10
2023-03-16T02:43:33.447Z,10.23
2023-03-16T02:49:32.665Z,9.80
2023-03-16T02:54:34.324Z,8.18
2023-03-16T02:59:36.110Z,6.13
2023-03-16T03:04:37.864Z,6.90
2023-03-16T03:09:45.190Z,7.22
2023-03-16T03:14:46.734Z,7.68
2023-03-16T03:19:51.869Z,7.03
2023-03-16T03:24:53.634Z,6.28
2023-03-16T03:29:55.219Z,6.00
2023-03-16T03:34:56.879Z,5.45
2023-03-16T03:39:59.286Z,5.55
2023-03-16T03:45:01.171Z,5.53
2023-03-16T03:50:02.935Z,5.63
2023-03-16T03:55:08.807Z,6.85
2023-03-16T04:00:13.349Z,6.55
2023-03-16T04:05:14.940Z,6.50
2023-03-16T04:10:16.674Z,7.88
2023-03-16T04:15:18.395Z,6.70
2023-03-16T04:20:34.741Z,6.70
2023-03-16T04:25:38.719Z,6.32
2023-03-16T04:30:42.971Z,6.47
2023-03-16T04:36:00.696Z,6.38
2023-03-16T04:41:04.637Z,7.22
2023-03-16T04:46:13.131Z,7.82
2023-03-16T04:51:15.430Z,8.27
2023-03-16T04:56:26.054Z,7.85
2023-03-16T05:01:33.360Z,7.30
2023-03-16T05:06:37.510Z,7.75
2023-03-16T05:11:40.182Z,9.80
2023-03-16T05:16:44.917Z,9.02
2023-03-16T05:21:46.568Z,10.00
2023-03-16T05:26:48.201Z,10.10
2023-03-16T05:31:51.874Z,10.73
2023-03-16T05:36:57.348Z,10.27
2023-03-16T05:41:59.482Z,13.82
2023-03-16T05:47:12.473Z,12.52
2023-03-16T05:52:18.351Z,10.88
2023-03-16T05:57:20.117Z,11.93
2023-03-16T06:02:25.370Z,11.00
2023-03-16T06:07:29.172Z,11.35
2023-03-16T06:12:31.744Z,9.80
2023-03-16T06:17:34.654Z,11.40
2023-03-16T06:22:41.620Z,10.65
2023-03-16T06:27:43.515Z,11.25
2023-03-16T06:32:48.776Z,13.95
2023-03-16T06:37:50.399Z,11.32
2023-03-16T06:43:07.476Z,11.05
2023-03-16T06:48:09.867Z,11.65
2023-03-16T06:53:11.580Z,9.63
2023-03-16T06:58:13.983Z,9.88
2023-03-16T07:03:15.632Z,11.82
2023-03-16T07:08:22.906Z,11.80
2023-03-16T07:13:24.535Z,9.50
2023-03-16T07:18:26.321Z,9.40
2023-03-16T07:23:28.706Z,8.65
2023-03-16T07:33:40.202Z,6.90
2023-03-16T07:38:45.321Z,7.72
2023-03-16T07:43:48.649Z,10.23
2023-03-16T07:48:50.404Z,8.43
2023-03-16T07:53:52.073Z,9.15
2023-03-16T07:59:00.345Z,8.55
2023-03-16T08:04:02.988Z,8.77
2023-03-16T08:09:05.793Z,10.27
2023-03-16T08:14:11.154Z,8.95
2023-03-16T08:19:35.670Z,10.15
2023-03-16T08:24:39.514Z,11.65
2023-03-16T08:29:43.904Z,10.70
2023-03-16T08:34:50.099Z,9.60
2023-03-16T08:39:53.094Z,11.38
2023-03-16T08:44:55.804Z,10.60
2023-03-16T08:49:58.744Z,11.38
2023-03-16T08:55:03.923Z,10.20
2023-03-16T09:00:13.498Z,9.52
2023-03-16T09:05:16.020Z,11.07
2023-03-16T09:10:19.751Z,9.23
2023-03-16T09:15:21.653Z,7.90
2023-03-16T09:20:35.150Z,8.25
2023-03-16T09:25:36.841Z,7.97
2023-03-16T09:30:38.344Z,8.60
2023-03-16T09:35:39.880Z,7.50
2023-03-16T09:40:41.639Z,9.20
2023-03-16T09:45:54.102Z,10.30
2023-03-16T09:50:56.865Z,8.88
2023-03-16T09:56:15.689Z,13.13
2023-03-16T10:01:43.363Z,9.68
2023-03-16T10:07:12.173Z,10.82
2023-03-16T10:12:14.542Z,8.27
2023-03-16T10:17:29.116Z,9.02
2023-03-16T10:22:34.804Z,9.45
2023-03-16T10:27:38.561Z,9.20
2023-03-16T10:32:40.378Z,9.60
2023-03-16T10:37:41.860Z,8.88
2023-03-16T10:42:43.844Z,8.93
2023-03-16T10:47:45.409Z,9.13
2023-03-16T10:52:49.583Z,7.95
2023-03-16T10:57:55.014Z,8.30
2023-03-16T11:02:59.773Z,8.98
2023-03-16T11:08:25.527Z,9.70
2023-03-16T11:13:35.877Z,9.35
2023-03-16T11:18:43.847Z,9.98
2023-03-16T11:23:52.751Z,9.73
2023-03-16T11:29:09.540Z,9.27
2023-03-16T11:34:27.418Z,9.73
2023-03-16T11:40:02.339Z,9.13
2023-03-16T11:45:32.841Z,9.07
2023-03-16T11:50:47.071Z,11.10
2023-03-16T11:56:15.679Z,9.27
2023-03-16T12:01:28.517Z,9.07
2023-03-16T12:06:38.668Z,10.68
2023-03-16T12:12:04.684Z,9.15
2023-03-16T12:17:09.213Z,8.50
2023-03-16T12:22:20.094Z,9.40
2023-03-16T12:27:38.875Z,9.55
2023-03-16T12:33:00.950Z,8.57
2023-03-16T12:38:22.620Z,8.98
2023-03-16T12:43:54.789Z,7.80
2023-03-16T12:49:01.171Z,8.75
2023-03-16T12:54:05.855Z,7.22
2023-03-16T12:59:07.978Z,8.27
2023-03-16T13:04:15.688Z,9.10
2023-03-16T13:09:28.412Z,7.65
2023-03-16T13:14:44.137Z,7.93
2023-03-16T13:19:58.705Z,6.53
2023-03-16T13:25:22.758Z,7.40
2023-03-16T13:30:28.882Z,4.95
2023-03-16T13:35:31.846Z,6.68
2023-03-16T13:40:33.625Z,5.80
2023-03-16T13:45:38.818Z,6.00
2023-03-16T13:50:42.437Z,5.90
2023-03-16T13:55:47.106Z,6.43
2023-03-16T14:00:48.881Z,5.38
2023-03-16T14:05:50.456Z,5.70
2023-03-16T14:10:59.824Z,5.88
2023-03-16T14:16:11.937Z,6.97
2023-03-16T14:21:17.694Z,5.70
2023-03-16T14:26:23.139Z,6.72
2023-03-16T14:31:34.137Z,4.18
2023-03-16T14:36:39.035Z,5.70
2023-03-16T14:41:40.637Z,4.72
2023-03-16T14:46:42.727Z,3.65
2023-03-16T14:51:46.873Z,4.47
2023-03-16T14:56:51.692Z,4.13
2023-03-16T15:01:55.205Z,4.03
2023-03-16T15:06:57.834Z,4.10
2023-03-16T15:11:59.546Z,3.50
2023-03-16T15:17:01.633Z,3.67
2023-03-16T15:22:04.566Z,3.95
2023-03-16T15:27:22.743Z,3.10
2023-03-16T15:32:24.403Z,3.85
2023-03-16T15:37:27.626Z,3.40
2023-03-16T15:42:29.465Z,3.42
2023-03-16T15:47:31.372Z,5.75
2023-03-16T15:52:36.675Z,3.58
2023-03-16T15:57:38.298Z,3.88
2023-03-16T16:02:39.842Z,2.85
2023-03-16T16:07:41.509Z,3.22
2023-03-16T16:12:51.409Z,3.28
2023-03-16T16:18:19.189Z,3.58
2023-03-16T16:23:15.772Z,4.07
2023-03-16T16:28:39.268Z,3.08
2023-03-16T16:33:40.865Z,3.40
2023-03-16T16:38:42.395Z,3.10
2023-03-16T16:43:47.548Z,2.88
2023-03-16T16:48:52.115Z,3.40
2023-03-16T16:53:55.872Z,4.60
2023-03-16T16:59:01.532Z,2.75
2023-03-16T17:04:03.422Z,3.03
2023-03-16T17:09:05.822Z,3.33
2023-03-16T17:14:08.270Z,2.60
2023-03-16T17:19:18.387Z,2.72
2023-03-16T17:24:19.919Z,3.10
2023-03-16T17:29:31.319Z,3.45
2023-03-16T17:34:34.176Z,5.40
2023-03-16T17:39:36.908Z,2.95
2023-03-16T17:44:44.013Z,3.50
2023-03-16T17:49:48.629Z,3.83
2023-03-16T17:54:51.973Z,2.50
2023-03-16T17:59:53.855Z,3.20
2023-03-16T18:04:55.390Z,2.63
2023-03-16T18:09:56.877Z,2.65
2023-03-16T18:14:58.710Z,2.58
2023-03-16T18:20:00.332Z,2.90
2023-03-16T18:25:02.123Z,2.45
2023-03-16T18:30:03.910Z,2.65
2023-03-16T18:35:06.773Z,3.42
2023-03-16T18:40:17.294Z,3.30
2023-03-16T18:45:18.903Z,3.45
2023-03-16T18:50:27.619Z,2.90
2023-03-16T18:55:30.672Z,3.88
2023-03-16T19:00:33.442Z,3.35
2023-03-16T19:05:36.697Z,4.75
2023-03-16T19:10:52.749Z,5.35
2023-03-16T19:15:55.946Z,3.42
2023-03-16T19:20:57.600Z,3.10
2023-03-16T19:25:59.154Z,3.60
2023-03-16T19:31:01.951Z,3.67
2023-03-16T19:36:04.750Z,3.85
2023-03-16T19:41:18.285Z,4.95
2023-03-16T19:46:20.372Z,4.15
2023-03-16T19:51:22.264Z,3.63
2023-03-16T19:56:26.603Z,3.83
2023-03-16T20:01:32.952Z,3.78
2023-03-16T20:06:34.736Z,4.22
2023-03-16T20:11:36.469Z,4.35
2023-03-16T20:16:38.025Z,4.43
2023-03-16T20:21:39.574Z,3.30
2023-03-16T20:26:41.144Z,4.28
2023-03-16T20:31:42.751Z,3.72
2023-03-16T20:36:44.294Z,3.92
2023-03-16T20:41:45.885Z,3.58
2023-03-16T20:46:47.652Z,3.45
2023-03-16T20:51:49.812Z,3.85
2023-03-16T20:56:51.480Z,4.53
2023-03-16T21:01:55.680Z,3.60
2023-03-16T21:06:57.547Z,3.55
2023-03-16T21:11:59.178Z,4.72
2023-03-16T21:17:01.049Z,3.72
2023-03-16T21:22:02.576Z,7.22
2023-03-16T21:27:04.081Z,5.80
2023-03-16T21:32:16.519Z,6.80
2023-03-16T21:37:20.827Z,3.53
2023-03-16T21:42:22.403Z,4.53
2023-03-16T21:47:27.955Z,3.13
2023-03-16T21:52:30.271Z,3.15
2023-03-16T21:57:32.298Z,3.63
2023-03-16T22:02:35.920Z,3.25
2023-03-16T22:07:37.545Z,3.83
2023-03-16T22:12:39.043Z,3.28
2023-03-16T22:17:40.762Z,3.20
2023-03-16T22:22:42.584Z,4.22
2023-03-16T22:27:44.306Z,3.42
2023-03-16T22:32:49.093Z,3.22
2023-03-16T22:37:51.013Z,2.90
2023-03-16T22:42:52.553Z,3.10
2023-03-16T22:47:56.730Z,2.90
2023-03-16T22:53:02.601Z,3.13
2023-03-16T22:58:15.362Z,2.60
2023-03-16T23:03:19.741Z,5.35
2023-03-16T23:08:23.483Z,4.05
2023-03-16T23:13:25.933Z,2.65
2023-03-16T23:18:27.418Z,3.42
2023-03-16T23:23:28.931Z,3.92
2023-03-16T23:28:30.404Z,2.83
2023-03-16T23:33:32.069Z,4.32
2023-03-16T23:38:33.662Z,3.65
2023-03-16T23:43:35.548Z,4.45
2023-03-16T23:48:39.045Z,3.65
2023-03-16T23:53:41.881Z,5.88
2023-03-16T23:58:43.674Z,3.38
